Time;durP1;ratioP1;P1;durP2;ratioP2;P2;SDS_P1;SDS_P2;PMS_P1;PMS_P2;Temp;Humidity;BMP_temperature;BMP_pressure;BME280_temperature;BME280_humidity;BME280_pressure;Samples;Min_cycle;Max_cycle;Signal;HPM_P1;HPM_P2
2023/08/28 00:01:35;;;;;;;9.30;6.93;;;;;;;;;;2607751;50;20475;-74
2023/08/28 00:04:02;;;;;;;11.53;6.03;;;;;;;;;;2608005;54;20404;-74
2023/08/28 00:06:28;;;;;;;7.47;6.57;;;;;;;;;;2607473;54;20490;-74
2023/08/28 00:08:54;;;;;;;7.37;6.50;;;;;;;;;;2607736;54;20460;-74
2023/08/28 00:11:20;;;;;;;12.20;6.93;;;;;;;;;;2608413;54;20539;-74
2023/08/28 00:13:46;;;;;;;9.47;6.43;;;;;;;;;;2608034;54;20403;-75
2023/08/28 00:16:12;;;;;;;7.53;6.30;;;;;;;;;;2607488;54;20453;-74
2023/08/28 00:18:38;;;;;;;7.50;6.80;;;;;;;;;;2607601;54;20419;-73
2023/08/28 00:21:04;;;;;;;8.73;7.00;;;;;;;;;;2608827;54;20427;-75
2023/08/28 00:23:33;;;;;;;8.07;7.23;;;;;;;;;;2607337;47;20428;-75
2023/08/28 00:26:02;;;;;;;8.47;6.83;;;;;;;;;;2607636;54;21398;-74
2023/08/28 00:28:28;;;;;;;8.50;6.20;;;;;;;;;;2608131;54;20475;-75
2023/08/28 00:30:54;;;;;;;8.50;7.10;;;;;;;;;;2608177;54;20396;-74
2023/08/28 00:33:20;;;;;;;7.50;6.30;;;;;;;;;;2607376;47;20407;-75
2023/08/28 00:35:46;;;;;;;7.83;6.87;;;;;;;;;;2608699;54;20475;-73
2023/08/28 00:38:13;;;;;;;8.20;6.60;;;;;;;;;;2607743;54;20420;-74
2023/08/28 00:40:42;;;;;;;8.30;7.03;;;;;;;;;;2607977;54;20997;-74
2023/08/28 00:43:08;;;;;;;11.20;7.17;;;;;;;;;;2609782;54;20420;-75
2023/08/28 00:45:35;;;;;;;11.07;6.63;;;;;;;;;;2611699;39;20832;-75
2023/08/28 00:48:02;;;;;;;7.30;5.97;;;;;;;;;;2608069;47;20423;-75
2023/08/28 00:50:29;;;;;;;6.70;6.10;;;;;;;;;;2607505;54;20554;-75
2023/08/28 00:52:55;;;;;;;11.40;7.33;;;;;;;;;;2607813;54;20506;-73
2023/08/28 00:55:21;;;;;;;6.63;5.53;;;;;;;;;;2607382;47;20419;-74
2023/08/28 00:57:47;;;;;;;7.00;6.27;;;;;;;;;;2608074;54;20423;-73
2023/08/28 01:00:13;;;;;;;8.50;6.60;;;;;;;;;;2608718;47;20518;-74
2023/08/28 01:02:40;;;;;;;12.80;6.30;;;;;;;;;;2607623;54;20424;-75
2023/08/28 01:05:06;;;;;;;6.50;5.80;;;;;;;;;;2607641;54;20423;-73
2023/08/28 01:07:35;;;;;;;7.90;6.40;;;;;;;;;;2607531;39;20800;-74
2023/08/28 01:10:13;;;;;;;8.67;6.37;;;;;;;;;;2608115;54;21688;-74
2023/08/28 01:12:47;;;;;;;7.27;6.57;;;;;;;;;;2610092;54;20435;-73
2023/08/28 01:15:24;;;;;;;7.20;6.50;;;;;;;;;;2610857;54;20486;-74
2023/08/28 01:18:04;;;;;;;8.47;7.30;;;;;;;;;;2611257;54;20399;-74
2023/08/28 01:20:31;;;;;;;8.67;6.33;;;;;;;;;;2611146;54;20387;-75
2023/08/28 01:23:00;;;;;;;8.93;6.47;;;;;;;;;;2610547;54;20418;-74
2023/08/28 01:25:28;;;;;;;9.30;7.10;;;;;;;;;;2609984;54;20400;-73
2023/08/28 01:27:54;;;;;;;8.27;6.97;;;;;;;;;;2608912;39;21121;-75
2023/08/28 01:30:21;;;;;;;7.83;7.03;;;;;;;;;;2609169;54;20415;-74
2023/08/28 01:32:47;;;;;;;6.93;6.33;;;;;;;;;;2609726;54;20416;-74
2023/08/28 01:35:17;;;;;;;11.93;7.10;;;;;;;;;;2609828;54;20406;-75
2023/08/28 01:38:09;;;;;;;9.40;6.67;;;;;;;;;;2611336;54;20418;-74
2023/08/28 01:40:40;;;;;;;9.00;7.40;;;;;;;;;;2609346;47;21099;-70
2023/08/28 01:43:09;;;;;;;9.87;6.70;;;;;;;;;;2609666;47;20411;-72
2023/08/28 01:45:36;;;;;;;8.40;7.60;;;;;;;;;;2610729;39;20796;-73
2023/08/28 01:48:03;;;;;;;12.13;7.80;;;;;;;;;;2610312;54;20427;-73
2023/08/28 01:50:29;;;;;;;9.40;8.50;;;;;;;;;;2611643;54;20503;-73
2023/08/28 01:52:56;;;;;;;11.87;8.13;;;;;;;;;;2610855;54;20982;-74
2023/08/28 01:55:42;;;;;;;9.60;7.60;;;;;;;;;;2610113;54;20499;-72
2023/08/28 01:58:11;;;;;;;8.13;7.33;;;;;;;;;;2609998;39;20941;-73
2023/08/28 02:00:38;;;;;;;11.80;8.90;;;;;;;;;;2611151;54;20460;-71
2023/08/28 02:03:05;;;;;;;9.77;7.80;;;;;;;;;;2609504;47;20990;-72
2023/08/28 02:05:32;;;;;;;8.23;7.20;;;;;;;;;;2609033;54;20515;-73
2023/08/28 02:07:59;;;;;;;13.37;9.30;;;;;;;;;;2610075;54;20447;-70
2023/08/28 02:10:25;;;;;;;9.20;7.60;;;;;;;;;;2609807;54;20420;-73
2023/08/28 02:12:51;;;;;;;10.40;9.03;;;;;;;;;;2609940;54;21319;-71
2023/08/28 02:15:19;;;;;;;8.53;7.63;;;;;;;;;;2609786;54;20416;-73
2023/08/28 02:17:45;;;;;;;12.77;7.83;;;;;;;;;;2610463;47;21077;-71
2023/08/28 02:20:11;;;;;;;9.10;8.10;;;;;;;;;;2610835;54;20438;-71
2023/08/28 02:22:38;;;;;;;9.27;7.90;;;;;;;;;;2612704;54;20419;-72
2023/08/28 02:25:05;;;;;;;8.80;8.00;;;;;;;;;;2613921;39;20900;-72
2023/08/28 02:27:31;;;;;;;9.87;8.90;;;;;;;;;;2613001;54;20423;-73
2023/08/28 02:29:58;;;;;;;10.17;9.23;;;;;;;;;;2612124;54;20415;-70
2023/08/28 02:32:24;;;;;;;12.37;9.70;;;;;;;;;;2611033;54;20409;-72
2023/08/28 02:34:52;;;;;;;10.00;9.10;;;;;;;;;;2611878;54;20554;-72
2023/08/28 02:37:18;;;;;;;11.40;9.33;;;;;;;;;;2612819;54;20431;-73
2023/08/28 02:39:44;;;;;;;14.53;9.67;;;;;;;;;;2612136;54;20564;-73
2023/08/28 02:42:11;;;;;;;10.80;8.60;;;;;;;;;;2610879;54;20946;-73
2023/08/28 02:44:43;;;;;;;10.57;9.37;;;;;;;;;;2609912;47;20428;-73
2023/08/28 02:47:10;;;;;;;11.63;8.87;;;;;;;;;;2612402;47;20442;-75
2023/08/28 02:49:37;;;;;;;12.23;8.57;;;;;;;;;;2612909;54;21447;-75
2023/08/28 02:52:03;;;;;;;12.23;9.27;;;;;;;;;;2613983;39;21089;-73
2023/08/28 02:54:29;;;;;;;16.13;9.77;;;;;;;;;;2612065;54;20415;-75
2023/08/28 02:56:56;;;;;;;11.43;9.20;;;;;;;;;;2614503;31;21017;-75
2023/08/28 02:59:23;;;;;;;12.83;8.43;;;;;;;;;;2614148;46;20430;-73
2023/08/28 03:01:50;;;;;;;13.30;11.37;;;;;;;;;;2614313;54;20431;-74
2023/08/28 03:04:16;;;;;;;13.07;10.40;;;;;;;;;;2615175;54;20569;-74
2023/08/28 03:06:42;;;;;;;11.50;9.97;;;;;;;;;;2614176;51;20460;-74
2023/08/28 03:09:08;;;;;;;10.90;9.77;;;;;;;;;;2615257;54;20977;-75
2023/08/28 03:11:37;;;;;;;11.40;10.20;;;;;;;;;;2614024;54;20408;-77
2023/08/28 03:14:03;;;;;;;13.73;11.30;;;;;;;;;;2614029;47;20440;-75
2023/08/28 03:16:35;;;;;;;13.10;10.40;;;;;;;;;;2613869;54;20427;-75
2023/08/28 03:19:02;;;;;;;12.67;11.33;;;;;;;;;;2613500;54;20436;-75
2023/08/28 03:21:29;;;;;;;12.37;10.53;;;;;;;;;;2614023;54;20408;-75
2023/08/28 03:23:55;;;;;;;15.23;11.90;;;;;;;;;;2613897;39;21051;-74
2023/08/28 03:26:22;;;;;;;17.67;12.93;;;;;;;;;;2613758;47;21235;-74
2023/08/28 03:28:48;;;;;;;18.17;11.73;;;;;;;;;;2613646;54;20478;-75
2023/08/28 03:31:16;;;;;;;19.40;12.67;;;;;;;;;;2614601;54;20418;-75
2023/08/28 03:33:42;;;;;;;16.80;13.57;;;;;;;;;;2614777;54;20550;-74
2023/08/28 03:36:14;;;;;;;13.27;11.50;;;;;;;;;;2613673;47;20432;-75
2023/08/28 03:38:41;;;;;;;12.60;11.33;;;;;;;;;;2613968;54;20420;-74
2023/08/28 03:41:09;;;;;;;13.10;11.60;;;;;;;;;;2614336;54;20415;-74
2023/08/28 03:43:35;;;;;;;18.10;12.30;;;;;;;;;;2611769;47;20470;-74
2023/08/28 03:46:01;;;;;;;13.80;11.77;;;;;;;;;;2612933;46;20524;-74
2023/08/28 03:48:27;;;;;;;13.10;11.70;;;;;;;;;;2613058;54;20423;-74
2023/08/28 03:50:54;;;;;;;16.43;10.57;;;;;;;;;;2612222;47;20432;-74
2023/08/28 03:53:20;;;;;;;14.40;11.73;;;;;;;;;;2612056;47;20962;-73
2023/08/28 03:55:46;;;;;;;15.73;13.03;;;;;;;;;;2610637;47;20419;-74
2023/08/28 03:58:13;;;;;;;15.17;11.77;;;;;;;;;;2609599;47;20428;-74
2023/08/28 04:00:39;;;;;;;15.90;14.27;;;;;;;;;;2610138;54;20439;-73
2023/08/28 04:03:06;;;;;;;18.63;13.30;;;;;;;;;;2609520;54;20434;-72
2023/08/28 04:05:38;;;;;;;16.33;12.70;;;;;;;;;;2612514;54;20420;-72
2023/08/28 04:08:04;;;;;;;15.23;13.63;;;;;;;;;;2611222;54;21024;-74
2023/08/28 04:10:30;;;;;;;14.50;12.80;;;;;;;;;;2611621;54;20419;-74
2023/08/28 04:12:56;;;;;;;19.80;13.07;;;;;;;;;;2609893;54;21103;-73
2023/08/28 04:15:22;;;;;;;13.90;12.23;;;;;;;;;;2609941;54;20415;-71
2023/08/28 04:17:48;;;;;;;14.47;13.03;;;;;;;;;;2610114;54;20418;-73
2023/08/28 04:20:15;;;;;;;17.50;13.00;;;;;;;;;;2610920;47;20434;-73
2023/08/28 04:22:44;;;;;;;16.50;14.53;;;;;;;;;;2609963;54;20467;-72
2023/08/28 04:25:11;;;;;;;14.47;12.77;;;;;;;;;;2609365;46;21304;-74
2023/08/28 04:27:37;;;;;;;18.20;12.90;;;;;;;;;;2609525;47;20458;-73
2023/08/28 04:30:04;;;;;;;21.03;15.23;;;;;;;;;;2609881;54;20430;-71
2023/08/28 04:32:30;;;;;;;16.97;14.37;;;;;;;;;;2611305;54;20941;-72
2023/08/28 04:34:56;;;;;;;17.97;14.53;;;;;;;;;;2609880;51;20411;-72
2023/08/28 04:37:27;;;;;;;16.83;14.93;;;;;;;;;;2611233;54;20420;-71
2023/08/28 04:39:53;;;;;;;20.23;14.73;;;;;;;;;;2608995;54;20430;-73
2023/08/28 04:42:19;;;;;;;19.30;14.73;;;;;;;;;;2609169;47;20954;-71
2023/08/28 04:44:47;;;;;;;21.13;15.33;;;;;;;;;;2609454;54;20438;-73
2023/08/28 04:47:13;;;;;;;28.30;15.60;;;;;;;;;;2609998;54;20435;-70
2023/08/28 04:49:40;;;;;;;22.07;15.90;;;;;;;;;;2609523;54;20427;-71
2023/08/28 04:52:07;;;;;;;18.83;14.60;;;;;;;;;;2609534;54;21027;-72
2023/08/28 04:54:34;;;;;;;25.07;15.90;;;;;;;;;;2609313;54;20407;-70
2023/08/28 04:57:00;;;;;;;25.33;16.50;;;;;;;;;;2609162;46;20433;-73
2023/08/28 04:59:26;;;;;;;16.60;14.80;;;;;;;;;;2609699;54;20416;-72
2023/08/28 05:01:52;;;;;;;16.30;14.60;;;;;;;;;;2609975;54;20406;-71
2023/08/28 05:04:18;;;;;;;16.53;14.70;;;;;;;;;;2609783;54;20974;-70
2023/08/28 05:06:44;;;;;;;21.00;15.03;;;;;;;;;;2610753;54;20426;-71
2023/08/28 05:09:10;;;;;;;19.70;15.47;;;;;;;;;;2610618;54;21022;-69
2023/08/28 05:11:38;;;;;;;21.63;15.73;;;;;;;;;;2610073;54;20394;-71
2023/08/28 05:14:04;;;;;;;19.23;16.30;;;;;;;;;;2609134;54;20988;-72
2023/08/28 05:16:30;;;;;;;20.47;15.07;;;;;;;;;;2608451;47;20458;-74
2023/08/28 05:18:56;;;;;;;18.30;15.23;;;;;;;;;;2610902;54;20977;-71
2023/08/28 05:21:23;;;;;;;18.53;14.73;;;;;;;;;;2609716;54;20420;-72
2023/08/28 05:23:50;;;;;;;19.80;16.87;;;;;;;;;;2609461;54;20490;-71
2023/08/28 05:26:17;;;;;;;20.47;16.03;;;;;;;;;;2611523;39;20838;-74
2023/08/28 05:28:45;;;;;;;29.50;19.60;;;;;;;;;;2612214;47;20559;-74
2023/08/28 05:31:12;;;;;;;21.90;17.47;;;;;;;;;;2613347;39;20803;-74
2023/08/28 05:33:39;;;;;;;27.17;18.50;;;;;;;;;;2613449;54;20802;-74
2023/08/28 05:36:06;;;;;;;26.23;17.23;;;;;;;;;;2612995;46;20522;-73
2023/08/28 05:38:32;;;;;;;23.67;18.57;;;;;;;;;;2613593;54;20435;-73
2023/08/28 05:40:58;;;;;;;30.70;17.60;;;;;;;;;;2613197;54;20414;-74
2023/08/28 05:43:24;;;;;;;22.13;17.50;;;;;;;;;;2610314;47;20547;-74
2023/08/28 05:45:50;;;;;;;21.23;17.17;;;;;;;;;;2610231;54;20952;-74
2023/08/28 05:48:16;;;;;;;21.63;18.73;;;;;;;;;;2611459;54;20435;-73
2023/08/28 05:50:45;;;;;;;21.73;17.40;;;;;;;;;;2612812;47;20435;-74
2023/08/28 05:53:11;;;;;;;17.43;15.60;;;;;;;;;;2609167;54;20934;-74
2023/08/28 05:55:37;;;;;;;19.90;16.93;;;;;;;;;;2611621;54;20455;-74
2023/08/28 05:58:05;;;;;;;20.63;15.80;;;;;;;;;;2612257;54;20450;-74
2023/08/28 06:00:33;;;;;;;17.50;15.33;;;;;;;;;;2613125;54;20980;-73
2023/08/28 06:02:59;;;;;;;16.67;15.00;;;;;;;;;;2613713;39;20584;-75
2023/08/28 06:05:26;;;;;;;18.07;15.73;;;;;;;;;;2612733;54;20430;-74
2023/08/28 06:07:52;;;;;;;17.77;15.97;;;;;;;;;;2612913;54;20566;-74
2023/08/28 06:10:19;;;;;;;19.40;16.10;;;;;;;;;;2612963;46;20419;-74
2023/08/28 06:12:49;;;;;;;16.03;14.37;;;;;;;;;;2613031;47;20442;-74
2023/08/28 06:15:21;;;;;;;15.80;14.30;;;;;;;;;;2613538;54;20431;-75
2023/08/28 06:17:50;;;;;;;14.87;13.30;;;;;;;;;;2613243;54;20431;-74
2023/08/28 06:20:16;;;;;;;17.33;13.00;;;;;;;;;;2611436;54;20428;-74
2023/08/28 06:22:43;;;;;;;15.20;12.53;;;;;;;;;;2609847;54;20460;-74
2023/08/28 06:25:10;;;;;;;15.23;13.63;;;;;;;;;;2612491;54;20420;-73
2023/08/28 06:27:39;;;;;;;15.07;13.40;;;;;;;;;;2610952;54;20408;-74
2023/08/28 06:30:06;;;;;;;14.37;13.03;;;;;;;;;;2612486;54;20411;-74
2023/08/28 06:32:33;;;;;;;14.23;12.93;;;;;;;;;;2611985;54;20983;-74
2023/08/28 06:35:02;;;;;;;18.03;13.90;;;;;;;;;;2612107;54;20418;-74
2023/08/28 06:37:28;;;;;;;12.97;11.73;;;;;;;;;;2611506;54;20492;-74
2023/08/28 06:39:54;;;;;;;15.70;12.03;;;;;;;;;;2610905;54;20962;-72
2023/08/28 06:42:20;;;;;;;15.60;13.13;;;;;;;;;;2609268;54;20415;-75
2023/08/28 06:44:46;;;;;;;13.97;12.57;;;;;;;;;;2608343;54;20455;-72
2023/08/28 06:47:13;;;;;;;14.30;12.80;;;;;;;;;;2612445;54;20424;-72
2023/08/28 06:49:41;;;;;;;13.93;12.43;;;;;;;;;;2613096;54;20432;-71
2023/08/28 06:52:08;;;;;;;13.67;11.40;;;;;;;;;;2612671;54;20423;-70
2023/08/28 06:54:36;;;;;;;12.10;10.93;;;;;;;;;;2612540;39;20829;-71
2023/08/28 06:57:02;;;;;;;15.60;11.73;;;;;;;;;;2612981;47;20511;-72
2023/08/28 06:59:30;;;;;;;13.07;11.30;;;;;;;;;;2613232;54;20519;-71
2023/08/28 07:01:58;;;;;;;13.10;11.90;;;;;;;;;;2612446;47;20998;-71
2023/08/28 07:04:25;;;;;;;14.33;11.50;;;;;;;;;;2613520;54;21009;-71
2023/08/28 07:06:51;;;;;;;13.60;11.00;;;;;;;;;;2613311;54;20405;-73
2023/08/28 07:09:17;;;;;;;12.97;11.60;;;;;;;;;;2613396;54;20455;-71
2023/08/28 07:11:43;;;;;;;12.73;11.30;;;;;;;;;;2613001;54;20429;-72
2023/08/28 07:14:10;;;;;;;12.47;11.27;;;;;;;;;;2611106;54;20423;-72
2023/08/28 07:16:36;;;;;;;11.93;10.70;;;;;;;;;;2611896;54;20427;-71
2023/08/28 07:19:03;;;;;;;12.60;11.30;;;;;;;;;;2612956;54;20954;-72
2023/08/28 07:21:29;;;;;;;11.73;10.63;;;;;;;;;;2612243;54;20950;-71
2023/08/28 07:23:55;;;;;;;14.60;11.73;;;;;;;;;;2613280;54;20970;-72
2023/08/28 07:26:21;;;;;;;14.00;12.60;;;;;;;;;;2612990;54;20411;-73
2023/08/28 07:28:48;;;;;;;12.93;11.77;;;;;;;;;;2612101;47;20458;-73
2023/08/28 07:31:15;;;;;;;15.80;13.60;;;;;;;;;;2612449;54;20419;-72
2023/08/28 07:33:41;;;;;;;13.57;12.20;;;;;;;;;;2612644;54;20427;-73
2023/08/28 07:36:07;;;;;;;13.17;12.00;;;;;;;;;;2612615;46;20436;-71
2023/08/28 07:38:33;;;;;;;13.93;12.70;;;;;;;;;;2611524;54;20462;-72
2023/08/28 07:41:00;;;;;;;14.43;13.23;;;;;;;;;;2613236;54;21008;-71
2023/08/28 07:43:27;;;;;;;18.00;13.10;;;;;;;;;;2612742;54;21017;-71
2023/08/28 07:45:53;;;;;;;14.60;13.30;;;;;;;;;;2610868;47;20427;-72
2023/08/28 07:48:19;;;;;;;14.37;12.90;;;;;;;;;;2612703;54;20430;-72
2023/08/28 07:50:45;;;;;;;15.13;13.77;;;;;;;;;;2612612;47;21246;-72
2023/08/28 07:53:12;;;;;;;14.17;12.97;;;;;;;;;;2611743;46;20578;-71
2023/08/28 07:55:38;;;;;;;14.87;13.60;;;;;;;;;;2613199;54;20395;-73
2023/08/28 07:58:04;;;;;;;15.17;13.50;;;;;;;;;;2612619;54;20592;-73
2023/08/28 08:00:34;;;;;;;14.30;12.93;;;;;;;;;;2612144;54;20400;-74
2023/08/28 08:03:03;;;;;;;14.43;12.97;;;;;;;;;;2610605;47;20494;-73
2023/08/28 08:05:30;;;;;;;16.43;13.77;;;;;;;;;;2611460;54;21013;-71
2023/08/28 08:07:56;;;;;;;17.43;13.90;;;;;;;;;;2612362;39;20938;-71
2023/08/28 08:10:22;;;;;;;17.97;16.13;;;;;;;;;;2613152;54;20441;-71
2023/08/28 08:12:49;;;;;;;15.27;13.90;;;;;;;;;;2612943;54;20431;-71
2023/08/28 08:15:16;;;;;;;15.77;14.20;;;;;;;;;;2609994;54;21260;-73
2023/08/28 08:17:42;;;;;;;14.57;13.30;;;;;;;;;;2608258;54;20400;-72
2023/08/28 08:20:12;;;;;;;14.60;13.20;;;;;;;;;;2610861;39;20852;-74
2023/08/28 08:22:39;;;;;;;18.07;14.93;;;;;;;;;;2612473;54;20387;-71
2023/08/28 08:25:05;;;;;;;17.83;14.90;;;;;;;;;;2611453;47;20450;-72
2023/08/28 08:27:31;;;;;;;19.87;14.80;;;;;;;;;;2612152;54;21361;-72
2023/08/28 08:29:57;;;;;;;16.10;14.40;;;;;;;;;;2612883;54;20510;-72
2023/08/28 08:32:23;;;;;;;16.40;14.33;;;;;;;;;;2612683;54;20463;-71
2023/08/28 08:34:49;;;;;;;14.33;13.10;;;;;;;;;;2610723;54;20458;-72
2023/08/28 08:37:16;;;;;;;16.90;13.60;;;;;;;;;;2612221;54;20526;-74
2023/08/28 08:39:42;;;;;;;17.37;14.40;;;;;;;;;;2612490;54;20408;-71
2023/08/28 08:42:08;;;;;;;18.20;14.57;;;;;;;;;;2610913;54;20415;-71
2023/08/28 08:44:35;;;;;;;13.83;12.43;;;;;;;;;;2612480;54;20491;-71
2023/08/28 08:47:04;;;;;;;14.40;13.13;;;;;;;;;;2612000;54;20396;-71
2023/08/28 08:49:36;;;;;;;13.43;12.23;;;;;;;;;;2611932;54;20427;-74
2023/08/28 08:52:05;;;;;;;13.23;12.03;;;;;;;;;;2612654;31;21114;-72
2023/08/28 08:54:36;;;;;;;12.80;11.60;;;;;;;;;;2612024;54;20420;-72
2023/08/28 08:57:04;;;;;;;13.93;12.00;;;;;;;;;;2611608;54;20438;-71
2023/08/28 08:59:31;;;;;;;12.73;11.43;;;;;;;;;;2610998;54;20424;-71
2023/08/28 09:02:00;;;;;;;12.93;11.73;;;;;;;;;;2611893;54;20419;-72
2023/08/28 09:04:26;;;;;;;13.83;12.60;;;;;;;;;;2611420;47;20445;-74
2023/08/28 09:06:55;;;;;;;14.20;12.70;;;;;;;;;;2613561;54;20443;-71
2023/08/28 09:09:21;;;;;;;14.03;12.50;;;;;;;;;;2613666;54;20416;-72
2023/08/28 09:11:48;;;;;;;13.50;12.17;;;;;;;;;;2613880;54;20958;-72
2023/08/28 09:14:15;;;;;;;14.07;12.30;;;;;;;;;;2612775;54;20403;-71
2023/08/28 09:16:41;;;;;;;13.00;11.70;;;;;;;;;;2612104;54;20968;-73
2023/08/28 09:19:08;;;;;;;12.63;11.70;;;;;;;;;;2613484;54;20423;-71
2023/08/28 09:21:35;;;;;;;14.37;13.27;;;;;;;;;;2611964;47;20434;-70
2023/08/28 09:24:01;;;;;;;14.03;13.00;;;;;;;;;;2613410;54;20435;-72
2023/08/28 09:26:27;;;;;;;13.37;12.23;;;;;;;;;;2613144;47;20438;-72
2023/08/28 09:29:02;;;;;;;13.63;12.53;;;;;;;;;;2613559;54;20478;-73
2023/08/28 09:31:32;;;;;;;14.53;13.53;;;;;;;;;;2612917;54;20531;-71
2023/08/28 09:33:58;;;;;;;13.87;12.67;;;;;;;;;;2612693;54;20965;-71
2023/08/28 09:36:25;;;;;;;13.57;12.50;;;;;;;;;;2613045;54;20534;-71
2023/08/28 09:38:51;;;;;;;13.90;12.70;;;;;;;;;;2612863;39;20868;-71
2023/08/28 09:41:17;;;;;;;13.63;12.50;;;;;;;;;;2610292;54;20403;-71
2023/08/28 09:43:43;;;;;;;13.83;12.77;;;;;;;;;;2612870;54;20427;-71
2023/08/28 09:46:09;;;;;;;13.80;12.70;;;;;;;;;;2613140;54;20468;-71
2023/08/28 09:48:36;;;;;;;14.57;13.47;;;;;;;;;;2611523;54;20546;-72
2023/08/28 09:51:03;;;;;;;13.70;12.80;;;;;;;;;;2613151;47;20530;-71
2023/08/28 09:53:30;;;;;;;16.10;14.50;;;;;;;;;;2612170;54;20419;-72
2023/08/28 09:55:57;;;;;;;13.40;12.40;;;;;;;;;;2612738;54;20502;-72
2023/08/28 09:58:24;;;;;;;14.67;13.47;;;;;;;;;;2611624;54;20408;-71
2023/08/28 10:00:51;;;;;;;13.20;12.20;;;;;;;;;;2611587;47;20431;-70
2023/08/28 10:03:19;;;;;;;13.43;12.30;;;;;;;;;;2605827;47;20442;-73
2023/08/28 10:05:46;;;;;;;14.33;13.20;;;;;;;;;;2606657;47;20979;-72
2023/08/28 10:08:13;;;;;;;12.43;11.40;;;;;;;;;;2609976;54;20506;-71
2023/08/28 10:10:47;;;;;;;13.13;12.17;;;;;;;;;;2612437;54;20424;-72
2023/08/28 10:13:15;;;;;;;13.23;12.30;;;;;;;;;;2612336;54;20424;-71
2023/08/28 10:15:45;;;;;;;14.43;13.23;;;;;;;;;;2610716;54;20415;-71
2023/08/28 10:18:17;;;;;;;14.03;13.03;;;;;;;;;;2611972;54;20439;-72
2023/08/28 10:20:44;;;;;;;14.00;13.00;;;;;;;;;;2610545;54;21002;-72
2023/08/28 10:23:11;;;;;;;14.50;13.30;;;;;;;;;;2611709;54;20411;-73
2023/08/28 10:25:39;;;;;;;15.93;14.50;;;;;;;;;;2612020;39;20777;-73
2023/08/28 10:28:06;;;;;;;14.17;13.20;;;;;;;;;;2612670;54;20417;-73
2023/08/28 10:30:34;;;;;;;14.97;13.70;;;;;;;;;;2612204;54;21092;-72
2023/08/28 10:33:00;;;;;;;13.77;12.67;;;;;;;;;;2612392;54;20419;-71
2023/08/28 10:35:26;;;;;;;13.93;12.80;;;;;;;;;;2608267;54;20443;-72
2023/08/28 10:37:53;;;;;;;16.93;15.43;;;;;;;;;;2611085;54;20471;-73
2023/08/28 10:40:20;;;;;;;16.63;15.37;;;;;;;;;;2612522;54;20399;-70
2023/08/28 10:42:47;;;;;;;16.53;15.03;;;;;;;;;;2612547;54;20407;-71
2023/08/28 10:45:13;;;;;;;18.20;16.80;;;;;;;;;;2611148;54;20458;-71
2023/08/28 10:47:39;;;;;;;18.60;17.00;;;;;;;;;;2609890;54;20412;-72
2023/08/28 10:50:06;;;;;;;17.87;15.90;;;;;;;;;;2611466;39;20790;-71
2023/08/28 10:52:32;;;;;;;18.43;16.83;;;;;;;;;;2612494;39;20927;-71
2023/08/28 10:55:03;;;;;;;16.77;15.50;;;;;;;;;;2612943;54;21030;-73
2023/08/28 10:57:30;;;;;;;18.00;16.43;;;;;;;;;;2612888;54;20438;-70
2023/08/28 11:00:02;;;;;;;20.43;18.73;;;;;;;;;;2611768;39;20975;-72
2023/08/28 11:02:48;;;;;;;19.20;17.70;;;;;;;;;;2611639;54;20430;-70
2023/08/28 11:05:24;;;;;;;19.33;17.70;;;;;;;;;;2608786;54;20431;-73
2023/08/28 11:07:54;;;;;;;18.87;17.00;;;;;;;;;;2614189;54;21036;-73
2023/08/28 11:10:21;;;;;;;20.00;18.40;;;;;;;;;;2613621;54;20990;-74
2023/08/28 11:12:53;;;;;;;18.77;17.33;;;;;;;;;;2613917;46;21383;-74
2023/08/28 11:15:26;;;;;;;18.83;17.37;;;;;;;;;;2613271;39;20525;-74
2023/08/28 11:18:14;;;;;;;20.80;18.67;;;;;;;;;;2612020;54;20407;-73
2023/08/28 11:20:42;;;;;;;17.90;16.50;;;;;;;;;;2612089;47;20931;-74
2023/08/28 11:23:09;;;;;;;17.00;15.87;;;;;;;;;;2611677;39;20743;-73
2023/08/28 11:25:36;;;;;;;18.60;16.97;;;;;;;;;;2610269;47;21046;-73
2023/08/28 11:28:03;;;;;;;18.03;16.63;;;;;;;;;;2608120;39;20954;-72
2023/08/28 11:30:30;;;;;;;18.60;16.90;;;;;;;;;;2606731;54;20428;-73
2023/08/28 11:32:56;;;;;;;17.50;16.30;;;;;;;;;;2610012;54;20427;-73
2023/08/28 11:35:23;;;;;;;15.23;14.13;;;;;;;;;;2609555;54;20403;-72
2023/08/28 11:37:51;;;;;;;14.43;13.53;;;;;;;;;;2611133;54;20435;-73
2023/08/28 11:40:18;;;;;;;15.67;14.57;;;;;;;;;;2610630;54;20496;-73
2023/08/28 11:42:46;;;;;;;15.67;14.60;;;;;;;;;;2610880;54;20447;-75
2023/08/28 11:45:18;;;;;;;13.47;12.37;;;;;;;;;;2610660;46;20471;-73
2023/08/28 11:47:44;;;;;;;16.77;15.67;;;;;;;;;;2609145;39;20912;-72
2023/08/28 11:50:10;;;;;;;15.00;13.90;;;;;;;;;;2606860;39;21778;-72
2023/08/28 11:52:36;;;;;;;14.60;13.60;;;;;;;;;;2606179;54;21853;-72
2023/08/28 11:55:04;;;;;;;16.10;14.83;;;;;;;;;;2606679;54;20412;-72
2023/08/28 11:57:32;;;;;;;16.23;15.10;;;;;;;;;;2610607;54;20878;-73
2023/08/28 12:00:04;;;;;;;14.80;13.83;;;;;;;;;;2611759;54;20431;-73
2023/08/28 12:02:30;;;;;;;18.10;16.50;;;;;;;;;;2611154;54;20511;-72
2023/08/28 12:04:56;;;;;;;16.80;15.43;;;;;;;;;;2611766;54;20526;-73
2023/08/28 12:07:23;;;;;;;17.60;15.93;;;;;;;;;;2608819;54;20408;-72
2023/08/28 12:09:50;;;;;;;17.20;15.90;;;;;;;;;;2605758;54;20455;-73
2023/08/28 12:12:17;;;;;;;16.80;14.40;;;;;;;;;;2603815;54;20424;-73
2023/08/28 12:14:44;;;;;;;13.20;12.20;;;;;;;;;;2610560;54;20430;-73
2023/08/28 12:17:14;;;;;;;12.23;11.43;;;;;;;;;;2609724;54;21356;-74
2023/08/28 12:19:40;;;;;;;13.23;12.23;;;;;;;;;;2609454;47;20879;-74
2023/08/28 12:22:07;;;;;;;23.13;13.60;;;;;;;;;;2608666;54;20431;-73
2023/08/28 12:24:33;;;;;;;13.67;12.13;;;;;;;;;;2609303;54;20462;-72
2023/08/28 12:26:59;;;;;;;12.63;11.70;;;;;;;;;;2608404;54;20402;-73
2023/08/28 12:29:26;;;;;;;12.27;11.57;;;;;;;;;;2606724;54;20434;-73
2023/08/28 12:31:52;;;;;;;13.87;13.07;;;;;;;;;;2608639;47;20430;-74
2023/08/28 12:34:19;;;;;;;12.43;11.53;;;;;;;;;;2604616;54;20407;-73
2023/08/28 12:36:46;;;;;;;11.97;11.30;;;;;;;;;;2610675;54;20944;-71
2023/08/28 12:39:21;;;;;;;12.20;11.60;;;;;;;;;;2612928;47;20447;-72
2023/08/28 12:41:51;;;;;;;12.13;11.43;;;;;;;;;;2612482;54;20418;-72
2023/08/28 12:44:17;;;;;;;12.73;11.93;;;;;;;;;;2611876;54;20406;-72
2023/08/28 12:46:46;;;;;;;11.70;11.00;;;;;;;;;;2611870;54;20383;-71
2023/08/28 12:49:13;;;;;;;11.50;10.70;;;;;;;;;;2612435;54;21062;-73
2023/08/28 12:51:43;;;;;;;11.20;10.50;;;;;;;;;;2611379;54;20391;-73
2023/08/28 12:54:09;;;;;;;10.57;10.07;;;;;;;;;;2610497;39;20821;-73
2023/08/28 12:56:36;;;;;;;11.50;10.90;;;;;;;;;;2611689;54;20427;-71
2023/08/28 12:59:02;;;;;;;11.73;11.13;;;;;;;;;;2611153;47;20423;-73
2023/08/28 13:01:30;;;;;;;10.80;10.30;;;;;;;;;;2609575;47;20440;-73
2023/08/28 13:03:56;;;;;;;11.97;11.17;;;;;;;;;;2611249;54;20404;-72
2023/08/28 13:06:26;;;;;;;11.83;11.03;;;;;;;;;;2611508;54;21029;-73
2023/08/28 13:08:52;;;;;;;11.33;10.70;;;;;;;;;;2611212;47;20448;-72
2023/08/28 13:11:18;;;;;;;12.60;11.90;;;;;;;;;;2611046;54;20388;-73
2023/08/28 13:13:44;;;;;;;11.30;10.70;;;;;;;;;;2610285;54;20946;-73
2023/08/28 13:16:10;;;;;;;12.80;11.63;;;;;;;;;;2609812;54;20415;-72
2023/08/28 13:18:36;;;;;;;10.77;10.17;;;;;;;;;;2610396;54;20429;-74
2023/08/28 13:21:05;;;;;;;12.17;11.47;;;;;;;;;;2607157;47;20431;-73
2023/08/28 13:23:32;;;;;;;11.43;10.93;;;;;;;;;;2609188;47;21013;-71
2023/08/28 13:25:58;;;;;;;12.70;11.90;;;;;;;;;;2611158;54;20414;-72
2023/08/28 13:28:24;;;;;;;12.07;11.47;;;;;;;;;;2611630;54;20435;-73
2023/08/28 13:30:50;;;;;;;11.80;11.30;;;;;;;;;;2612196;54;20404;-72
2023/08/28 13:33:16;;;;;;;12.40;11.50;;;;;;;;;;2611406;47;20412;-73
2023/08/28 13:35:42;;;;;;;12.80;12.20;;;;;;;;;;2611208;54;20384;-73
2023/08/28 13:38:08;;;;;;;11.50;11.00;;;;;;;;;;2611517;54;20402;-73
2023/08/28 13:40:35;;;;;;;12.10;11.30;;;;;;;;;;2611574;54;20439;-72
2023/08/28 13:43:04;;;;;;;11.93;11.33;;;;;;;;;;2611646;54;21274;-72
2023/08/28 13:45:30;;;;;;;12.47;11.47;;;;;;;;;;2611781;47;20411;-74
2023/08/28 13:47:56;;;;;;;11.00;10.50;;;;;;;;;;2615534;54;20458;-73
2023/08/28 13:50:23;;;;;;;11.70;11.00;;;;;;;;;;2614859;54;20425;-74
2023/08/28 13:52:50;;;;;;;11.17;10.67;;;;;;;;;;2614504;39;20782;-75
2023/08/28 13:55:16;;;;;;;11.10;10.60;;;;;;;;;;2613487;54;20422;-74
2023/08/28 13:57:43;;;;;;;11.10;10.60;;;;;;;;;;2612777;54;20380;-73
2023/08/28 14:00:12;;;;;;;11.03;10.53;;;;;;;;;;2612680;47;20431;-74
2023/08/28 14:02:41;;;;;;;11.40;10.90;;;;;;;;;;2611383;47;20415;-74
2023/08/28 14:05:08;;;;;;;10.73;10.23;;;;;;;;;;2611911;54;20508;-74
2023/08/28 14:07:34;;;;;;;12.00;11.37;;;;;;;;;;2609364;54;20843;-74
2023/08/28 14:10:00;;;;;;;12.03;11.43;;;;;;;;;;2610773;47;20470;-74
2023/08/28 14:12:26;;;;;;;11.10;10.60;;;;;;;;;;2610755;54;20974;-76
2023/08/28 14:14:52;;;;;;;12.70;12.10;;;;;;;;;;2610292;47;20518;-74
2023/08/28 14:17:18;;;;;;;12.50;11.90;;;;;;;;;;2610989;54;20420;-74
2023/08/28 14:19:44;;;;;;;12.20;11.60;;;;;;;;;;2611899;54;20415;-74
2023/08/28 14:22:10;;;;;;;11.80;11.30;;;;;;;;;;2612252;39;20861;-74